createdAt,value
2019-03-31T00:01:45.259Z,21.07
2019-03-31T00:04:14.693Z,22.33
2019-03-31T00:06:44.075Z,23.73
2019-03-31T00:09:13.719Z,24.33
2019-03-31T00:11:43.180Z,25.33
2019-03-31T00:14:12.686Z,23.90
2019-03-31T00:16:42.171Z,22.90
2019-03-31T00:19:11.798Z,22.40
2019-03-31T00:21:41.128Z,27.00
2019-03-31T00:24:10.601Z,21.13
2019-03-31T00:26:39.951Z,22.43
2019-03-31T00:29:09.694Z,21.57
2019-03-31T00:31:39.123Z,25.80
2019-03-31T00:34:27.711Z,23.00
2019-03-31T00:36:57.084Z,23.27
2019-03-31T00:39:26.447Z,22.63
2019-03-31T00:41:55.873Z,21.77
2019-03-31T00:44:25.308Z,21.50
2019-03-31T00:46:54.997Z,24.40
2019-03-31T00:49:24.379Z,21.10
2019-03-31T00:51:53.707Z,22.40
2019-03-31T00:54:23.072Z,21.43
2019-03-31T00:56:52.453Z,20.20
2019-03-31T00:59:21.810Z,24.67
2019-03-31T01:01:56.336Z,21.67
2019-03-31T01:04:28.938Z,22.70
2019-03-31T01:06:58.761Z,22.00
2019-03-31T01:09:32.754Z,21.20
2019-03-31T01:12:04.205Z,22.13
2019-03-31T01:14:33.719Z,20.43
2019-03-31T01:17:06.163Z,21.77
2019-03-31T01:19:36.247Z,20.90
2019-03-31T01:22:05.694Z,20.10
2019-03-31T01:24:35.199Z,18.07
2019-03-31T01:27:06.567Z,20.03
2019-03-31T01:29:36.487Z,21.90
2019-03-31T01:32:06.083Z,20.60
2019-03-31T01:34:35.550Z,20.50
2019-03-31T01:37:05.729Z,18.80
2019-03-31T01:39:35.881Z,20.07
2019-03-31T01:42:05.985Z,19.37
2019-03-31T01:44:35.343Z,18.27
2019-03-31T01:47:05.994Z,20.90
2019-03-31T01:49:35.693Z,20.17
2019-03-31T01:52:05.573Z,19.77
2019-03-31T01:54:35.160Z,19.80
2019-03-31T01:57:04.598Z,20.37
2019-03-31T01:59:34.037Z,19.07
2019-03-31T02:02:04.749Z,18.40
2019-03-31T02:04:34.304Z,20.60
2019-03-31T02:07:04.088Z,20.40
2019-03-31T02:09:33.563Z,18.23
2019-03-31T02:12:03.059Z,19.70
2019-03-31T02:14:32.459Z,18.40
2019-03-31T02:17:03.298Z,18.33
2019-03-31T02:19:32.855Z,19.07
2019-03-31T02:22:02.585Z,18.03
2019-03-31T02:24:31.942Z,19.70
2019-03-31T02:27:01.710Z,18.83
2019-03-31T02:29:31.137Z,19.10
2019-03-31T02:32:00.766Z,19.10
2019-03-31T02:34:30.240Z,20.00
2019-03-31T02:36:59.770Z,17.93
2019-03-31T02:39:29.148Z,18.40
2019-03-31T02:41:58.589Z,17.70
2019-03-31T02:44:28.096Z,19.80
2019-03-31T02:46:57.619Z,18.10
2019-03-31T02:49:26.952Z,18.03
2019-03-31T02:51:56.520Z,19.47
2019-03-31T02:54:25.975Z,19.37
2019-03-31T02:56:56.300Z,19.27
2019-03-31T02:59:25.897Z,21.00
2019-03-31T03:01:57.192Z,20.80
2019-03-31T03:04:28.904Z,20.10
2019-03-31T03:06:59.898Z,19.27
2019-03-31T03:09:31.299Z,18.87
2019-03-31T03:12:03.175Z,18.67
2019-03-31T03:14:37.205Z,20.97
2019-03-31T03:17:06.832Z,20.00
2019-03-31T03:19:36.276Z,19.47
2019-03-31T03:22:06.019Z,18.30
2019-03-31T03:24:35.405Z,17.87
2019-03-31T03:27:05.095Z,19.80
2019-03-31T03:29:34.480Z,17.97
2019-03-31T03:32:03.995Z,22.00
2019-03-31T03:34:33.384Z,21.50
2019-03-31T03:37:03.658Z,20.07
2019-03-31T03:39:33.719Z,21.17
2019-03-31T03:42:03.166Z,20.27
2019-03-31T03:44:32.551Z,19.30
2019-03-31T03:47:01.995Z,19.93
2019-03-31T03:49:31.353Z,19.30
2019-03-31T03:52:00.711Z,19.40
2019-03-31T03:54:30.157Z,18.90
2019-03-31T03:56:59.523Z,20.13
2019-03-31T03:59:28.873Z,17.60
2019-03-31T04:01:58.227Z,19.37
2019-03-31T04:04:27.683Z,19.00
2019-03-31T04:06:57.060Z,20.67
2019-03-31T04:09:26.541Z,20.30
2019-03-31T04:11:56.373Z,18.63
2019-03-31T04:14:25.722Z,19.60
2019-03-31T04:16:55.347Z,20.40
2019-03-31T04:19:25.017Z,18.20
2019-03-31T04:21:54.385Z,20.27
2019-03-31T04:24:23.741Z,19.70
2019-03-31T04:26:53.177Z,21.10
2019-03-31T04:29:23.004Z,21.30
2019-03-31T04:31:52.420Z,20.60
2019-03-31T04:34:21.783Z,19.63
2019-03-31T04:36:51.272Z,21.70
2019-03-31T04:39:20.638Z,19.13
2019-03-31T04:41:49.967Z,21.13
2019-03-31T04:44:19.303Z,23.10
2019-03-31T04:46:48.761Z,21.83
2019-03-31T04:49:18.118Z,19.80
2019-03-31T04:51:47.482Z,19.60
2019-03-31T04:54:16.840Z,20.23
2019-03-31T04:56:46.348Z,22.50
2019-03-31T04:59:15.707Z,22.53
2019-03-31T05:01:45.259Z,21.90
2019-03-31T05:04:14.691Z,20.70
2019-03-31T05:06:44.215Z,21.80
2019-03-31T05:09:13.571Z,20.83
2019-03-31T05:11:42.920Z,19.30
2019-03-31T05:14:12.308Z,20.57
2019-03-31T05:16:41.670Z,22.00
2019-03-31T05:19:11.060Z,20.23
2019-03-31T05:21:40.408Z,20.80
2019-03-31T05:24:09.793Z,20.80
2019-03-31T05:26:39.271Z,21.80
2019-03-31T05:29:08.623Z,21.10
2019-03-31T05:31:38.055Z,20.67
2019-03-31T05:34:18.494Z,22.70
2019-03-31T05:36:39.144Z,20.97
2019-03-31T05:39:08.507Z,21.10
2019-03-31T05:41:38.485Z,20.60
2019-03-31T05:44:08.015Z,20.73
2019-03-31T05:46:37.432Z,21.23
2019-03-31T05:49:06.854Z,22.60
2019-03-31T05:51:36.273Z,19.80
2019-03-31T05:54:06.212Z,20.70
2019-03-31T05:56:35.584Z,20.60
2019-03-31T05:59:05.411Z,23.17
2019-03-31T06:01:34.844Z,21.23
2019-03-31T06:04:04.297Z,19.43
2019-03-31T06:06:36.927Z,18.77
2019-03-31T06:09:06.962Z,18.53
2019-03-31T06:11:36.471Z,20.90
2019-03-31T06:14:06.478Z,20.40
2019-03-31T06:16:35.909Z,20.23
2019-03-31T06:19:05.491Z,19.70
2019-03-31T06:21:34.903Z,20.30
2019-03-31T06:24:04.399Z,20.07
2019-03-31T06:26:33.771Z,20.43
2019-03-31T06:29:03.266Z,20.70
2019-03-31T06:31:32.615Z,23.03
2019-03-31T06:34:02.189Z,22.13
2019-03-31T06:36:31.611Z,22.60
2019-03-31T06:39:01.088Z,22.00
2019-03-31T06:41:30.511Z,21.60
2019-03-31T06:44:00.070Z,20.70
2019-03-31T06:46:29.871Z,22.40
2019-03-31T06:48:59.347Z,20.50
2019-03-31T06:51:28.727Z,20.33
2019-03-31T06:53:58.062Z,20.80
2019-03-31T06:56:27.955Z,22.73
2019-03-31T06:58:57.395Z,23.53
2019-03-31T07:01:27.371Z,21.97
2019-03-31T07:03:57.203Z,21.13
2019-03-31T07:06:26.928Z,24.40
2019-03-31T07:08:56.315Z,22.67
2019-03-31T07:11:25.671Z,21.53
2019-03-31T07:13:55.339Z,23.40
2019-03-31T07:16:24.815Z,23.40
2019-03-31T07:18:54.236Z,23.50
2019-03-31T07:21:23.959Z,21.93
2019-03-31T07:23:53.492Z,24.80
2019-03-31T07:26:22.902Z,24.67
2019-03-31T07:28:52.338Z,24.67
2019-03-31T07:31:21.869Z,23.37
2019-03-31T07:33:51.319Z,27.27
2019-03-31T07:36:20.852Z,25.60
2019-03-31T07:38:50.448Z,26.13
2019-03-31T07:41:20.195Z,29.00
2019-03-31T07:43:49.763Z,32.87
2019-03-31T07:46:19.602Z,40.63
2019-03-31T07:48:49.094Z,31.87
2019-03-31T07:51:18.531Z,34.70
2019-03-31T07:53:48.023Z,34.30
2019-03-31T07:56:17.699Z,37.93
2019-03-31T07:58:47.152Z,36.10
2019-03-31T08:01:16.647Z,40.10
2019-03-31T08:03:46.128Z,41.77
2019-03-31T08:06:15.831Z,44.60
2019-03-31T08:08:45.194Z,37.90
2019-03-31T08:11:17.100Z,40.33
2019-03-31T08:13:45.813Z,40.33
2019-03-31T08:16:15.216Z,42.03
2019-03-31T08:18:44.792Z,39.43
2019-03-31T08:21:14.280Z,41.60
2019-03-31T08:23:43.648Z,37.90
2019-03-31T08:26:13.000Z,39.40
2019-03-31T08:28:42.460Z,42.70
2019-03-31T08:31:11.859Z,42.47
2019-03-31T08:33:41.321Z,44.47
2019-03-31T08:36:10.739Z,43.73
2019-03-31T08:38:40.160Z,45.40
2019-03-31T08:41:09.575Z,44.90
2019-03-31T08:43:39.075Z,44.77
2019-03-31T08:46:08.584Z,48.67
2019-03-31T08:48:38.106Z,51.30
2019-03-31T08:51:07.538Z,48.30
2019-03-31T08:53:36.982Z,50.07
2019-03-31T08:56:08.770Z,50.23
2019-03-31T08:58:37.563Z,49.80
2019-03-31T09:01:11.606Z,47.47
2019-03-31T09:03:40.979Z,51.13
2019-03-31T09:06:10.540Z,50.67
2019-03-31T09:08:39.916Z,50.03
2019-03-31T09:11:09.638Z,53.60
2019-03-31T09:13:39.168Z,51.80
2019-03-31T09:16:14.742Z,52.60
2019-03-31T09:18:44.264Z,52.23
2019-03-31T09:21:13.650Z,48.53
2019-03-31T09:23:43.298Z,50.57
2019-03-31T09:26:12.787Z,48.80
2019-03-31T09:28:42.507Z,48.60
2019-03-31T09:31:11.974Z,46.80
2019-03-31T09:33:41.618Z,43.47
2019-03-31T09:36:16.589Z,49.00
2019-03-31T09:38:42.598Z,51.87
2019-03-31T09:41:12.284Z,51.20
2019-03-31T09:43:41.730Z,41.77
2019-03-31T09:46:11.175Z,35.80
2019-03-31T09:48:40.640Z,45.40
2019-03-31T09:51:10.212Z,44.17
2019-03-31T09:53:39.742Z,41.70
2019-03-31T09:56:09.086Z,36.67
2019-03-31T09:58:38.589Z,47.00
2019-03-31T10:01:08.318Z,50.77
2019-03-31T10:03:37.794Z,47.73
2019-03-31T10:06:11.056Z,50.90
2019-03-31T10:08:38.398Z,51.70
2019-03-31T10:11:07.788Z,48.70
2019-03-31T10:13:37.239Z,50.80
2019-03-31T10:16:06.737Z,46.70
2019-03-31T10:18:36.199Z,47.77
2019-03-31T10:21:05.874Z,49.20
2019-03-31T10:23:35.655Z,47.23
2019-03-31T10:26:05.273Z,46.83
2019-03-31T10:28:34.764Z,47.50
2019-03-31T10:31:04.187Z,49.13
2019-03-31T10:33:33.687Z,46.77
2019-03-31T10:36:03.236Z,48.93
2019-03-31T10:38:32.640Z,43.40
2019-03-31T10:41:02.114Z,48.03
2019-03-31T10:43:31.575Z,47.87
2019-03-31T10:46:01.236Z,40.30
2019-03-31T10:48:30.609Z,44.57
2019-03-31T10:51:00.044Z,42.70
2019-03-31T10:53:29.607Z,43.87
2019-03-31T10:55:59.080Z,41.37
2019-03-31T10:58:29.600Z,44.10
2019-03-31T11:00:59.082Z,44.50
2019-03-31T11:03:28.492Z,44.63
2019-03-31T11:05:58.245Z,33.50
2019-03-31T11:08:27.834Z,42.10
2019-03-31T11:10:57.279Z,42.33
2019-03-31T11:13:26.838Z,42.27
2019-03-31T11:15:57.614Z,41.50
2019-03-31T11:18:27.187Z,36.47
2019-03-31T11:20:58.272Z,36.73
2019-03-31T11:23:29.028Z,30.67
2019-03-31T11:25:58.489Z,37.07
2019-03-31T11:28:27.828Z,40.50
2019-03-31T11:30:57.354Z,39.40
2019-03-31T11:33:27.005Z,39.13
2019-03-31T11:35:56.436Z,37.90
2019-03-31T11:38:26.120Z,37.10
2019-03-31T11:40:55.638Z,34.87
2019-03-31T11:43:25.019Z,31.37
2019-03-31T11:45:54.792Z,25.77
2019-03-31T11:48:24.375Z,32.33
2019-03-31T11:50:53.791Z,32.20
2019-03-31T11:53:23.251Z,30.63
2019-03-31T11:55:52.895Z,27.67
2019-03-31T11:58:22.375Z,34.83
2019-03-31T12:00:54.838Z,34.10
2019-03-31T12:03:24.361Z,33.67
2019-03-31T12:05:53.862Z,31.00
2019-03-31T12:08:23.530Z,24.90
2019-03-31T12:10:53.015Z,29.87
2019-03-31T12:13:22.534Z,24.93
2019-03-31T12:15:52.065Z,23.40
2019-03-31T12:18:21.507Z,27.23
2019-03-31T12:20:51.026Z,19.60
2019-03-31T12:23:20.366Z,19.57
2019-03-31T12:25:49.970Z,23.80
2019-03-31T12:28:19.822Z,24.03
2019-03-31T12:30:49.183Z,23.40
2019-03-31T12:33:18.707Z,19.37
2019-03-31T12:35:48.143Z,21.73
2019-03-31T12:38:17.558Z,17.73
2019-03-31T12:40:47.547Z,16.67
2019-03-31T12:43:17.253Z,19.10
2019-03-31T12:45:46.603Z,13.80
2019-03-31T12:48:16.081Z,20.57
2019-03-31T12:50:45.595Z,17.40
2019-03-31T12:53:15.091Z,17.70
2019-03-31T12:55:44.544Z,17.00
2019-03-31T12:58:14.192Z,17.77
2019-03-31T13:00:43.748Z,19.97
2019-03-31T13:03:15.929Z,18.83
2019-03-31T13:05:44.518Z,15.87
2019-03-31T13:08:13.947Z,18.73
2019-03-31T13:10:43.479Z,17.40
2019-03-31T13:13:13.244Z,15.10
2019-03-31T13:15:42.666Z,15.80
2019-03-31T13:18:12.236Z,14.73
2019-03-31T13:20:41.752Z,12.93
2019-03-31T13:23:11.375Z,17.07
2019-03-31T13:25:40.809Z,17.20
2019-03-31T13:28:10.356Z,20.33
2019-03-31T13:30:39.730Z,19.80
2019-03-31T13:33:09.375Z,18.60
2019-03-31T13:35:39.082Z,18.20
2019-03-31T13:38:11.363Z,15.97
2019-03-31T13:40:40.189Z,19.57
2019-03-31T13:43:09.613Z,17.60
2019-03-31T13:45:39.080Z,16.83
2019-03-31T13:48:08.534Z,19.37
2019-03-31T13:50:37.981Z,20.90
2019-03-31T13:53:07.454Z,18.87
2019-03-31T13:55:37.015Z,17.80
2019-03-31T13:58:08.569Z,18.43
2019-03-31T14:00:42.126Z,17.63
2019-03-31T14:03:11.711Z,17.67
2019-03-31T14:05:41.450Z,14.10
2019-03-31T14:08:24.722Z,15.77
2019-03-31T14:10:42.247Z,13.13
2019-03-31T14:13:11.910Z,16.67
2019-03-31T14:15:41.347Z,17.70
2019-03-31T14:18:10.794Z,15.60
2019-03-31T14:20:40.164Z,17.37
2019-03-31T14:23:09.875Z,16.60
2019-03-31T14:25:39.444Z,17.33
2019-03-31T14:28:08.921Z,14.87
2019-03-31T14:30:38.419Z,15.33
2019-03-31T14:33:08.027Z,15.80
2019-03-31T14:35:38.193Z,16.63
2019-03-31T14:38:07.952Z,17.83
2019-03-31T14:40:37.896Z,16.37
2019-03-31T14:43:07.744Z,15.97
2019-03-31T14:45:37.888Z,16.00
2019-03-31T14:48:07.461Z,17.87
2019-03-31T14:50:40.605Z,15.70
2019-03-31T14:53:10.210Z,15.40
2019-03-31T14:55:39.981Z,16.10
2019-03-31T14:58:09.582Z,15.43
2019-03-31T15:00:40.029Z,16.47
2019-03-31T15:03:10.275Z,14.00
2019-03-31T15:05:40.105Z,13.43
2019-03-31T15:08:09.612Z,14.40
2019-03-31T15:10:39.047Z,12.77
2019-03-31T15:13:08.525Z,14.07
2019-03-31T15:15:38.000Z,15.90
2019-03-31T15:18:07.491Z,14.80
2019-03-31T15:20:37.015Z,12.63
2019-03-31T15:23:06.497Z,13.50
2019-03-31T15:25:36.105Z,15.10
2019-03-31T15:28:05.593Z,14.53
2019-03-31T15:30:35.171Z,12.83
2019-03-31T15:33:05.038Z,14.47
2019-03-31T15:35:37.500Z,14.60
2019-03-31T15:38:06.299Z,13.80
2019-03-31T15:40:35.919Z,15.10
2019-03-31T15:43:05.711Z,12.70
2019-03-31T15:45:35.586Z,12.93
2019-03-31T15:48:05.278Z,11.27
2019-03-31T15:50:34.768Z,12.20
2019-03-31T15:53:04.303Z,11.20
2019-03-31T15:55:33.646Z,11.53
2019-03-31T15:58:05.339Z,10.47
2019-03-31T16:00:34.179Z,11.03
2019-03-31T16:03:03.621Z,11.40
2019-03-31T16:05:33.341Z,9.77
2019-03-31T16:08:02.304Z,8.57
2019-03-31T16:10:31.275Z,9.57
2019-03-31T16:13:00.146Z,8.33
2019-03-31T16:15:29.024Z,9.47
2019-03-31T16:17:57.936Z,8.73
2019-03-31T16:20:26.887Z,10.73
2019-03-31T16:22:55.983Z,11.30
2019-03-31T16:25:30.763Z,8.70
2019-03-31T16:27:59.917Z,9.17
2019-03-31T16:30:29.283Z,10.30
2019-03-31T16:32:58.323Z,10.10
2019-03-31T16:35:27.189Z,10.65
2019-03-31T16:37:56.173Z,7.80
2019-03-31T16:40:25.208Z,8.47
2019-03-31T16:42:54.100Z,9.80
2019-03-31T16:45:23.025Z,8.90
2019-03-31T16:47:52.003Z,8.60
2019-03-31T16:50:21.278Z,9.00
2019-03-31T16:52:52.635Z,7.43
2019-03-31T16:55:20.907Z,7.93
2019-03-31T16:57:49.890Z,9.57
2019-03-31T17:00:18.910Z,8.70
2019-03-31T17:02:48.076Z,8.50
2019-03-31T17:05:22.094Z,8.40
2019-03-31T17:07:47.885Z,8.60
2019-03-31T17:10:16.867Z,8.77
2019-03-31T17:12:45.674Z,8.87
2019-03-31T17:15:14.739Z,8.30
2019-03-31T17:17:43.598Z,8.40
2019-03-31T17:20:12.953Z,7.50
2019-03-31T17:22:42.073Z,8.27
2019-03-31T17:25:11.228Z,6.03
2019-03-31T17:27:40.448Z,7.27
2019-03-31T17:30:09.843Z,7.97
2019-03-31T17:32:38.653Z,10.60
2019-03-31T17:35:08.032Z,8.77
2019-03-31T17:37:36.919Z,10.43
2019-03-31T17:40:07.201Z,9.30
2019-03-31T17:42:36.317Z,9.00
2019-03-31T17:45:06.811Z,8.77
2019-03-31T17:47:35.662Z,7.43
2019-03-31T17:50:05.596Z,7.57
2019-03-31T17:52:48.950Z,8.97
2019-03-31T17:55:15.861Z,8.30
2019-03-31T17:57:44.699Z,8.27
2019-03-31T18:00:14.242Z,9.33
2019-03-31T18:02:43.134Z,7.77
2019-03-31T18:05:12.176Z,10.90
2019-03-31T18:07:41.133Z,8.43
2019-03-31T18:10:20.943Z,8.10
2019-03-31T18:12:41.073Z,7.67
2019-03-31T18:15:10.077Z,5.90
2019-03-31T18:17:39.203Z,7.90
2019-03-31T18:20:08.208Z,8.00
2019-03-31T18:22:37.153Z,7.33
2019-03-31T18:25:06.703Z,8.93
2019-03-31T18:27:35.560Z,8.43
2019-03-31T18:30:05.207Z,7.53
2019-03-31T18:32:34.132Z,7.60
2019-03-31T18:35:03.142Z,8.90
2019-03-31T18:37:31.955Z,7.73
2019-03-31T18:40:00.843Z,8.63
2019-03-31T18:42:29.818Z,8.53
2019-03-31T18:44:59.042Z,9.30
2019-03-31T18:47:27.855Z,8.17
2019-03-31T18:49:57.035Z,7.30
2019-03-31T18:52:26.104Z,7.37
2019-03-31T18:55:01.592Z,8.37
2019-03-31T18:57:38.383Z,7.97
2019-03-31T19:00:26.076Z,8.57
2019-03-31T19:03:17.336Z,6.60
2019-03-31T19:06:14.392Z,7.43
2019-03-31T19:09:02.119Z,7.50
2019-03-31T19:11:44.089Z,8.57
2019-03-31T19:14:27.464Z,7.80
2019-03-31T19:17:31.010Z,7.27
2019-03-31T19:20:17.755Z,7.20
2019-03-31T19:23:09.896Z,6.80
2019-03-31T19:25:56.772Z,6.43
2019-03-31T19:28:53.806Z,5.97
2019-03-31T19:31:50.651Z,6.60
2019-03-31T19:34:36.900Z,6.10
2019-03-31T19:37:15.363Z,6.10
2019-03-31T19:40:01.933Z,5.77
2019-03-31T19:42:37.664Z,7.27
2019-03-31T19:45:19.495Z,6.10
2019-03-31T19:48:06.634Z,6.10
2019-03-31T19:51:03.900Z,6.83
2019-03-31T19:53:58.651Z,5.63
2019-03-31T19:56:52.317Z,6.83
2019-03-31T19:59:33.411Z,5.50
2019-03-31T20:02:25.383Z,6.17
2019-03-31T20:05:13.658Z,5.57
2019-03-31T20:07:50.478Z,6.67
2019-03-31T20:10:34.695Z,6.07
2019-03-31T20:13:22.938Z,5.20
2019-03-31T20:16:02.730Z,5.70
2019-03-31T20:18:41.700Z,4.93
2019-03-31T20:21:31.823Z,6.10
2019-03-31T20:24:04.371Z,5.40
2019-03-31T20:26:54.048Z,4.73
2019-03-31T20:29:41.060Z,4.70
2019-03-31T20:32:27.914Z,5.37
2019-03-31T20:35:18.903Z,5.87
2019-03-31T20:37:54.326Z,5.47
2019-03-31T20:40:39.835Z,5.07
2019-03-31T20:43:26.770Z,5.87
2019-03-31T20:45:55.610Z,4.53
2019-03-31T20:48:25.141Z,5.10
2019-03-31T20:50:53.951Z,5.60
2019-03-31T20:53:22.776Z,5.23
2019-03-31T20:55:51.569Z,6.00
2019-03-31T20:58:20.492Z,5.63
2019-03-31T21:00:49.338Z,5.67
2019-03-31T21:03:18.203Z,5.33
2019-03-31T21:05:47.013Z,5.37
2019-03-31T21:08:16.227Z,5.50
2019-03-31T21:10:45.139Z,5.67
2019-03-31T21:13:14.044Z,5.23
2019-03-31T21:15:43.267Z,5.80
2019-03-31T21:18:12.347Z,4.83
2019-03-31T21:20:41.298Z,5.97
2019-03-31T21:23:10.448Z,6.23
2019-03-31T21:25:39.266Z,3.90
2019-03-31T21:28:08.059Z,6.90
2019-03-31T21:30:37.674Z,4.60
2019-03-31T21:33:06.504Z,4.90
2019-03-31T21:35:35.544Z,5.10
2019-03-31T21:38:04.733Z,4.93
2019-03-31T21:40:33.626Z,4.87
2019-03-31T21:43:02.439Z,4.33
2019-03-31T21:45:31.235Z,5.07
2019-03-31T21:48:00.055Z,4.10
2019-03-31T21:50:29.067Z,4.87
2019-03-31T21:52:57.965Z,4.50
2019-03-31T21:55:26.783Z,4.23
2019-03-31T21:57:55.998Z,4.57
2019-03-31T22:00:37.330Z,6.33
2019-03-31T22:03:06.128Z,4.73
2019-03-31T22:05:35.003Z,4.00
2019-03-31T22:08:04.151Z,4.07
2019-03-31T22:10:33.144Z,3.93
2019-03-31T22:13:02.025Z,3.30
2019-03-31T22:15:30.821Z,3.97
2019-03-31T22:17:59.769Z,4.50
2019-03-31T22:20:28.603Z,4.47
2019-03-31T22:22:57.510Z,3.83
2019-03-31T22:25:26.408Z,2.97
2019-03-31T22:27:55.229Z,4.37
2019-03-31T22:30:24.065Z,3.80
2019-03-31T22:32:52.961Z,4.20
2019-03-31T22:35:21.941Z,2.80
2019-03-31T22:37:50.780Z,3.37
2019-03-31T22:40:19.581Z,4.27
2019-03-31T22:42:48.473Z,4.30
2019-03-31T22:45:17.326Z,4.10
2019-03-31T22:47:46.196Z,2.53
2019-03-31T22:50:15.171Z,2.33
2019-03-31T22:52:44.011Z,3.50
2019-03-31T22:55:13.077Z,3.40
2019-03-31T22:57:41.893Z,4.50
2019-03-31T23:00:18.680Z,2.53
2019-03-31T23:02:47.478Z,2.43
2019-03-31T23:05:16.275Z,2.73
2019-03-31T23:07:45.380Z,3.27
2019-03-31T23:10:14.549Z,3.13
2019-03-31T23:12:43.508Z,2.83
2019-03-31T23:15:12.475Z,3.53
2019-03-31T23:17:41.636Z,1.90
2019-03-31T23:20:10.599Z,2.90
2019-03-31T23:22:39.726Z,2.73
2019-03-31T23:25:11.724Z,1.90
2019-03-31T23:27:40.543Z,2.57
2019-03-31T23:30:10.753Z,2.83
2019-03-31T23:32:39.733Z,2.83
2019-03-31T23:35:08.698Z,2.57
2019-03-31T23:37:37.598Z,3.13
2019-03-31T23:40:07.295Z,2.60
2019-03-31T23:42:36.199Z,1.40
2019-03-31T23:45:05.656Z,2.10
2019-03-31T23:47:34.630Z,2.67
2019-03-31T23:50:03.515Z,2.53
2019-03-31T23:52:32.350Z,2.70
2019-03-31T23:55:01.165Z,1.73
2019-03-31T23:57:39.638Z,2.50
